sensor_id;sensor_type;location;lat;lon;timestamp;pressure;altitude;pressure_sealevel;temperature;humidity
36828;BME280;22766;48.042;11.192;2022-12-18T00:02:12;95949.53;;;-6.15;100.00
36828;BME280;22766;48.042;11.192;2022-12-18T00:04:39;95955.34;;;-6.11;100.00
36828;BME280;22766;48.042;11.192;2022-12-18T00:07:05;95947.75;;;-6.08;100.00
36828;BME280;22766;48.042;11.192;2022-12-18T00:09:32;95952.59;;;-5.99;100.00
36828;BME280;22766;48.042;11.192;2022-12-18T00:12:06;95946.63;;;-5.95;100.00
36828;BME280;22766;48.042;11.192;2022-12-18T00:14:43;95946.69;;;-5.97;100.00
36828;BME280;22766;48.042;11.192;2022-12-18T00:17:10;95961.66;;;-5.92;100.00
36828;BME280;22766;48.042;11.192;2022-12-18T00:19:37;95960.84;;;-5.93;100.00
36828;BME280;22766;48.042;11.192;2022-12-18T00:22:03;95960.00;;;-5.93;100.00
36828;BME280;22766;48.042;11.192;2022-12-18T00:24:31;95962.47;;;-5.92;100.00
36828;BME280;22766;48.042;11.192;2022-12-18T00:26:58;95952.25;;;-5.84;100.00
36828;BME280;22766;48.042;11.192;2022-12-18T00:29:24;95958.16;;;-5.85;100.00
36828;BME280;22766;48.042;11.192;2022-12-18T00:31:51;95961.50;;;-5.85;100.00
36828;BME280;22766;48.042;11.192;2022-12-18T00:34:18;95971.34;;;-5.77;100.00
36828;BME280;22766;48.042;11.192;2022-12-18T00:36:47;95973.97;;;-5.82;100.00
36828;BME280;22766;48.042;11.192;2022-12-18T00:39:14;95975.50;;;-5.75;100.00
36828;BME280;22766;48.042;11.192;2022-12-18T00:41:43;95977.94;;;-5.70;100.00
36828;BME280;22766;48.042;11.192;2022-12-18T00:44:29;95982.97;;;-5.70;100.00
36828;BME280;22766;48.042;11.192;2022-12-18T00:46:56;95981.25;;;-5.68;100.00
36828;BME280;22766;48.042;11.192;2022-12-18T00:49:23;95988.78;;;-5.70;100.00
36828;BME280;22766;48.042;11.192;2022-12-18T00:51:50;95988.78;;;-5.70;100.00
36828;BME280;22766;48.042;11.192;2022-12-18T00:54:17;95998.78;;;-5.65;100.00
36828;BME280;22766;48.042;11.192;2022-12-18T00:56:44;96016.31;;;-5.62;100.00
36828;BME280;22766;48.042;11.192;2022-12-18T00:59:15;96007.16;;;-5.64;100.00
36828;BME280;22766;48.042;11.192;2022-12-18T01:01:43;96002.09;;;-5.63;100.00
36828;BME280;22766;48.042;11.192;2022-12-18T01:04:10;96005.31;;;-5.58;100.00
36828;BME280;22766;48.042;11.192;2022-12-18T01:06:36;95995.22;;;-5.56;100.00
36828;BME280;22766;48.042;11.192;2022-12-18T01:09:03;95990.19;;;-5.55;100.00
36828;BME280;22766;48.042;11.192;2022-12-18T01:11:30;96007.72;;;-5.52;100.00
36828;BME280;22766;48.042;11.192;2022-12-18T01:14:00;96009.53;;;-5.58;100.00
36828;BME280;22766;48.042;11.192;2022-12-18T01:16:26;96012.06;;;-5.60;100.00
36828;BME280;22766;48.042;11.192;2022-12-18T01:18:54;96016.13;;;-5.53;100.00
36828;BME280;22766;48.042;11.192;2022-12-18T01:21:21;96004.31;;;-5.49;100.00
36828;BME280;22766;48.042;11.192;2022-12-18T01:23:54;96002.75;;;-5.56;100.00
36828;BME280;22766;48.042;11.192;2022-12-18T01:26:23;96010.31;;;-5.55;100.00
36828;BME280;22766;48.042;11.192;2022-12-18T01:28:50;96012.75;;;-5.52;100.00
36828;BME280;22766;48.042;11.192;2022-12-18T01:31:21;96030.44;;;-5.55;100.00
36828;BME280;22766;48.042;11.192;2022-12-18T01:33:49;96032.88;;;-5.52;100.00
36828;BME280;22766;48.042;11.192;2022-12-18T01:38:51;96027.78;;;-5.50;100.00
36828;BME280;22766;48.042;11.192;2022-12-18T01:41:23;96032.03;;;-5.52;100.00
36828;BME280;22766;48.042;11.192;2022-12-18T01:46:22;96033.03;;;-5.59;100.00
36828;BME280;22766;48.042;11.192;2022-12-18T01:48:56;96039.75;;;-5.60;100.00
36828;BME280;22766;48.042;11.192;2022-12-18T01:51:23;96039.81;;;-5.63;100.00
36828;BME280;22766;48.042;11.192;2022-12-18T01:53:52;96039.75;;;-5.60;100.00
36828;BME280;22766;48.042;11.192;2022-12-18T01:56:21;96033.81;;;-5.57;100.00
36828;BME280;22766;48.042;11.192;2022-12-18T01:59:03;96038.09;;;-5.61;100.00
36828;BME280;22766;48.042;11.192;2022-12-18T02:01:32;96030.47;;;-5.58;100.00
36828;BME280;22766;48.042;11.192;2022-12-18T02:06:50;96037.06;;;-5.51;100.00
36828;BME280;22766;48.042;11.192;2022-12-18T02:09:19;96037.19;;;-5.57;100.00
36828;BME280;22766;48.042;11.192;2022-12-18T02:14:28;96033.34;;;-5.75;100.00
36828;BME280;22766;48.042;11.192;2022-12-18T02:27:24;96022.28;;;-5.68;100.00
36828;BME280;22766;48.042;11.192;2022-12-18T02:29:54;96017.41;;;-5.75;100.00
36828;BME280;22766;48.042;11.192;2022-12-18T02:32:30;96019.94;;;-5.75;100.00
36828;BME280;22766;48.042;11.192;2022-12-18T02:34:59;96020.81;;;-5.76;100.00
36828;BME280;22766;48.042;11.192;2022-12-18T02:37:29;96027.41;;;-5.71;100.00
36828;BME280;22766;48.042;11.192;2022-12-18T02:40:00;96028.25;;;-5.72;100.00
36828;BME280;22766;48.042;11.192;2022-12-18T02:42:29;96026.66;;;-5.76;100.00
36828;BME280;22766;48.042;11.192;2022-12-18T02:44:57;96024.91;;;-5.72;100.00
36828;BME280;22766;48.042;11.192;2022-12-18T02:47:28;96024.03;;;-5.71;100.00
36828;BME280;22766;48.042;11.192;2022-12-18T02:58:28;96026.44;;;-5.65;100.00
36828;BME280;22766;48.042;11.192;2022-12-18T03:03:52;96023.19;;;-5.72;100.00
36828;BME280;22766;48.042;11.192;2022-12-18T03:06:35;96024.06;;;-5.73;100.00
36828;BME280;22766;48.042;11.192;2022-12-18T03:09:10;96018.19;;;-5.72;100.00
36828;BME280;22766;48.042;11.192;2022-12-18T03:11:41;96016.59;;;-5.76;100.00
36828;BME280;22766;48.042;11.192;2022-12-18T03:14:31;96011.63;;;-5.79;100.00
36828;BME280;22766;48.042;11.192;2022-12-18T03:17:03;96018.31;;;-5.78;100.00
36828;BME280;22766;48.042;11.192;2022-12-18T03:19:32;96021.66;;;-5.77;100.00
36828;BME280;22766;48.042;11.192;2022-12-18T03:22:02;96018.50;;;-5.85;100.00
36828;BME280;22766;48.042;11.192;2022-12-18T03:24:40;96017.91;;;-5.98;100.00
36828;BME280;22766;48.042;11.192;2022-12-18T03:27:11;96019.66;;;-6.01;100.00
36828;BME280;22766;48.042;11.192;2022-12-18T03:29:46;96023.88;;;-6.03;100.00
36828;BME280;22766;48.042;11.192;2022-12-18T03:32:31;96017.91;;;-5.98;100.00
36828;BME280;22766;48.042;11.192;2022-12-18T03:35:04;96018.78;;;-6.00;100.00
36828;BME280;22766;48.042;11.192;2022-12-18T03:37:35;96021.44;;;-6.08;100.00
36828;BME280;22766;48.042;11.192;2022-12-18T03:40:03;96032.44;;;-6.13;100.00
36828;BME280;22766;48.042;11.192;2022-12-18T03:42:45;96032.41;;;-6.10;100.00
36828;BME280;22766;48.042;11.192;2022-12-18T03:45:24;96042.38;;;-6.07;100.00
36828;BME280;22766;48.042;11.192;2022-12-18T03:48:17;96043.25;;;-6.08;100.00
36828;BME280;22766;48.042;11.192;2022-12-18T03:56:05;96038.38;;;-6.16;100.00
36828;BME280;22766;48.042;11.192;2022-12-18T03:58:38;96030.63;;;-6.05;100.00
36828;BME280;22766;48.042;11.192;2022-12-18T04:01:35;96037.31;;;-6.06;100.00
36828;BME280;22766;48.042;11.192;2022-12-18T04:04:04;96046.56;;;-6.06;100.00
36828;BME280;22766;48.042;11.192;2022-12-18T04:06:36;96044.00;;;-6.03;100.00
36828;BME280;22766;48.042;11.192;2022-12-18T04:09:04;96053.31;;;-6.08;100.00
36828;BME280;22766;48.042;11.192;2022-12-18T04:11:35;96056.59;;;-6.05;100.00
36828;BME280;22766;48.042;11.192;2022-12-18T04:14:03;96059.22;;;-6.11;100.00
36828;BME280;22766;48.042;11.192;2022-12-18T04:16:33;96055.97;;;-6.17;100.00
36828;BME280;22766;48.042;11.192;2022-12-18T04:19:03;96046.09;;;-6.26;100.00
36828;BME280;22766;48.042;11.192;2022-12-18T04:21:34;96039.41;;;-6.27;100.00
36828;BME280;22766;48.042;11.192;2022-12-18T04:24:02;96039.38;;;-6.26;100.00
36828;BME280;22766;48.042;11.192;2022-12-18T04:26:29;96037.81;;;-6.31;100.00
36828;BME280;22766;48.042;11.192;2022-12-18T04:29:16;96042.81;;;-6.30;100.00
36828;BME280;22766;48.042;11.192;2022-12-18T04:31:43;96041.06;;;-6.26;100.00
36828;BME280;22766;48.042;11.192;2022-12-18T04:34:10;96044.34;;;-6.23;100.00
36828;BME280;22766;48.042;11.192;2022-12-18T04:36:42;96036.69;;;-6.17;100.00
36828;BME280;22766;48.042;11.192;2022-12-18T04:39:09;96045.91;;;-6.17;100.00
36828;BME280;22766;48.042;11.192;2022-12-18T04:41:36;96056.91;;;-6.21;100.00
36828;BME280;22766;48.042;11.192;2022-12-18T04:44:04;96059.75;;;-6.41;100.00
36828;BME280;22766;48.042;11.192;2022-12-18T04:46:30;96061.41;;;-6.38;100.00
36828;BME280;22766;48.042;11.192;2022-12-18T04:48:57;96063.09;;;-6.40;100.00
36828;BME280;22766;48.042;11.192;2022-12-18T04:51:24;96069.03;;;-6.44;100.00
36828;BME280;22766;48.042;11.192;2022-12-18T04:53:53;96070.69;;;-6.45;100.00
36828;BME280;22766;48.042;11.192;2022-12-18T04:56:19;96074.06;;;-6.44;100.00
36828;BME280;22766;48.042;11.192;2022-12-18T04:58:46;96078.31;;;-6.49;100.00
36828;BME280;22766;48.042;11.192;2022-12-18T05:01:14;96079.88;;;-6.42;100.00
36828;BME280;22766;48.042;11.192;2022-12-18T05:03:41;96072.31;;;-6.41;100.00
36828;BME280;22766;48.042;11.192;2022-12-18T05:06:09;96075.53;;;-6.33;100.00
36828;BME280;22766;48.042;11.192;2022-12-18T05:08:36;96083.09;;;-6.36;100.00
36828;BME280;22766;48.042;11.192;2022-12-18T05:11:06;96083.06;;;-6.33;100.00
36828;BME280;22766;48.042;11.192;2022-12-18T05:13:33;96081.53;;;-6.41;100.00
36828;BME280;22766;48.042;11.192;2022-12-18T05:16:02;96066.63;;;-6.50;100.00
36828;BME280;22766;48.042;11.192;2022-12-18T05:18:29;96073.47;;;-6.60;100.00
36828;BME280;22766;48.042;11.192;2022-12-18T05:20:56;96089.31;;;-6.56;100.00
36828;BME280;22766;48.042;11.192;2022-12-18T05:23:24;96091.84;;;-6.58;100.00
36828;BME280;22766;48.042;11.192;2022-12-18T05:28:19;96095.63;;;-6.34;100.00
36828;BME280;22766;48.042;11.192;2022-12-18T05:30:54;96103.16;;;-6.34;100.00
36828;BME280;22766;48.042;11.192;2022-12-18T05:33:22;96109.78;;;-6.27;100.00
36828;BME280;22766;48.042;11.192;2022-12-18T05:35:54;96114.03;;;-6.31;100.00
36828;BME280;22766;48.042;11.192;2022-12-18T05:38:22;96112.22;;;-6.24;100.00
36828;BME280;22766;48.042;11.192;2022-12-18T05:40:50;96108.81;;;-6.20;100.00
36828;BME280;22766;48.042;11.192;2022-12-18T05:43:18;96116.66;;;-6.38;100.00
36828;BME280;22766;48.042;11.192;2022-12-18T05:45:47;96115.09;;;-6.47;100.00
36828;BME280;22766;48.042;11.192;2022-12-18T05:48:15;96113.47;;;-6.48;100.00
36828;BME280;22766;48.042;11.192;2022-12-18T05:50:44;96107.59;;;-6.48;100.00
36828;BME280;22766;48.042;11.192;2022-12-18T05:53:16;96103.63;;;-6.61;100.00
36828;BME280;22766;48.042;11.192;2022-12-18T05:55:43;96102.81;;;-6.63;100.00
36828;BME280;22766;48.042;11.192;2022-12-18T05:58:11;96108.69;;;-6.64;100.00
36828;BME280;22766;48.042;11.192;2022-12-18T06:00:41;96104.47;;;-6.62;100.00
36828;BME280;22766;48.042;11.192;2022-12-18T06:03:08;96117.03;;;-6.62;100.00
36828;BME280;22766;48.042;11.192;2022-12-18T06:05:38;96117.06;;;-6.64;100.00
36828;BME280;22766;48.042;11.192;2022-12-18T06:08:05;96119.69;;;-6.72;100.00
36828;BME280;22766;48.042;11.192;2022-12-18T06:10:32;96107.19;;;-6.76;100.00
36828;BME280;22766;48.042;11.192;2022-12-18T06:12:59;96105.59;;;-6.80;100.00
36828;BME280;22766;48.042;11.192;2022-12-18T06:15:26;96111.25;;;-6.68;100.00
36828;BME280;22766;48.042;11.192;2022-12-18T06:17:53;96117.88;;;-6.62;100.00
36828;BME280;22766;48.042;11.192;2022-12-18T06:20:19;96117.91;;;-6.67;100.00
36828;BME280;22766;48.042;11.192;2022-12-18T06:22:46;96117.16;;;-6.70;100.00
36828;BME280;22766;48.042;11.192;2022-12-18T06:25:13;96127.22;;;-6.72;100.00
36828;BME280;22766;48.042;11.192;2022-12-18T06:27:39;96127.31;;;-6.79;100.00
36828;BME280;22766;48.042;11.192;2022-12-18T06:30:08;96131.50;;;-6.77;100.00
36828;BME280;22766;48.042;11.192;2022-12-18T06:32:34;96129.81;;;-6.78;100.00
36828;BME280;22766;48.042;11.192;2022-12-18T06:35:01;96124.69;;;-6.70;100.00
36828;BME280;22766;48.042;11.192;2022-12-18T06:37:28;96128.81;;;-6.66;100.00
36828;BME280;22766;48.042;11.192;2022-12-18T06:39:54;96133.06;;;-6.71;100.00
36828;BME280;22766;48.042;11.192;2022-12-18T06:42:23;96130.50;;;-6.68;100.00
36828;BME280;22766;48.042;11.192;2022-12-18T06:44:50;96143.03;;;-6.67;100.00
36828;BME280;22766;48.042;11.192;2022-12-18T06:47:18;96144.72;;;-6.67;100.00
36828;BME280;22766;48.042;11.192;2022-12-18T06:49:44;96146.34;;;-6.63;100.00
36828;BME280;22766;48.042;11.192;2022-12-18T06:52:11;96149.75;;;-6.67;100.00
36828;BME280;22766;48.042;11.192;2022-12-18T06:54:37;96147.16;;;-6.61;100.00
36828;BME280;22766;48.042;11.192;2022-12-18T06:57:04;96153.81;;;-6.60;100.00
36828;BME280;22766;48.042;11.192;2022-12-18T06:59:30;96155.56;;;-6.63;100.00
36828;BME280;22766;48.042;11.192;2022-12-18T07:01:57;96160.53;;;-6.60;100.00
36828;BME280;22766;48.042;11.192;2022-12-18T07:04:31;96159.63;;;-6.56;100.00
36828;BME280;22766;48.042;11.192;2022-12-18T07:06:58;96167.06;;;-6.50;100.00
36828;BME280;22766;48.042;11.192;2022-12-18T07:09:24;96173.78;;;-6.51;100.00
36828;BME280;22766;48.042;11.192;2022-12-18T07:11:52;96168.84;;;-6.57;100.00
36828;BME280;22766;48.042;11.192;2022-12-18T07:14:18;96167.19;;;-6.58;100.00
36828;BME280;22766;48.042;11.192;2022-12-18T07:16:45;96177.25;;;-6.59;100.00
36828;BME280;22766;48.042;11.192;2022-12-18T07:19:12;96193.88;;;-6.51;100.00
36828;BME280;22766;48.042;11.192;2022-12-18T07:21:38;96183.88;;;-6.54;100.00
36828;BME280;22766;48.042;11.192;2022-12-18T07:24:05;96169.69;;;-6.58;100.00
36828;BME280;22766;48.042;11.192;2022-12-18T07:26:32;96173.78;;;-6.51;100.00
36828;BME280;22766;48.042;11.192;2022-12-18T07:28:59;96168.78;;;-6.52;100.00
36828;BME280;22766;48.042;11.192;2022-12-18T07:31:26;96177.03;;;-6.44;100.00
36828;BME280;22766;48.042;11.192;2022-12-18T07:33:53;96175.31;;;-6.41;100.00
36828;BME280;22766;48.042;11.192;2022-12-18T07:36:23;96181.84;;;-6.32;100.00
36828;BME280;22766;48.042;11.192;2022-12-18T07:38:51;96178.59;;;-6.37;100.00
36828;BME280;22766;48.042;11.192;2022-12-18T07:41:19;96170.41;;;-6.48;100.00
36828;BME280;22766;48.042;11.192;2022-12-18T07:43:46;96175.56;;;-6.59;100.00
36828;BME280;22766;48.042;11.192;2022-12-18T07:46:14;96176.31;;;-6.52;100.00
36828;BME280;22766;48.042;11.192;2022-12-18T07:48:42;96173.66;;;-6.43;100.00
36828;BME280;22766;48.042;11.192;2022-12-18T07:51:11;96185.28;;;-6.36;100.00
36828;BME280;22766;48.042;11.192;2022-12-18T07:53:39;96186.06;;;-6.33;100.00
36828;BME280;22766;48.042;11.192;2022-12-18T07:56:09;96188.59;;;-6.34;100.00
36828;BME280;22766;48.042;11.192;2022-12-18T07:58:54;96197.38;;;-6.08;100.00
36828;BME280;22766;48.042;11.192;2022-12-18T08:01:21;96206.72;;;-6.14;100.00
36828;BME280;22766;48.042;11.192;2022-12-18T08:03:48;96207.50;;;-6.11;100.00
36828;BME280;22766;48.042;11.192;2022-12-18T08:06:17;96206.72;;;-6.14;100.00
36828;BME280;22766;48.042;11.192;2022-12-18T08:08:47;96204.31;;;-6.22;100.00
36828;BME280;22766;48.042;11.192;2022-12-18T08:11:15;96214.34;;;-6.20;100.00
36828;BME280;22766;48.042;11.192;2022-12-18T08:13:41;96208.47;;;-6.21;100.00
36828;BME280;22766;48.042;11.192;2022-12-18T08:16:09;96210.09;;;-6.17;100.00
36828;BME280;22766;48.042;11.192;2022-12-18T08:18:36;96212.59;;;-6.17;100.00
36828;BME280;22766;48.042;11.192;2022-12-18T08:21:18;96211.63;;;-6.07;100.00
36828;BME280;22766;48.042;11.192;2022-12-18T08:23:47;96215.91;;;-6.13;100.00
36828;BME280;22766;48.042;11.192;2022-12-18T08:26:14;96210.63;;;-5.98;100.00
36828;BME280;22766;48.042;11.192;2022-12-18T08:28:42;96213.16;;;-5.97;100.00
36828;BME280;22766;48.042;11.192;2022-12-18T08:31:09;96209.88;;;-6.03;100.00
36828;BME280;22766;48.042;11.192;2022-12-18T08:33:38;96212.56;;;-6.12;100.00
36828;BME280;22766;48.042;11.192;2022-12-18T08:36:08;96214.44;;;-6.26;100.00
36828;BME280;22766;48.042;11.192;2022-12-18T08:38:35;96209.44;;;-6.28;100.00
36828;BME280;22766;48.042;11.192;2022-12-18T08:41:06;96214.34;;;-6.20;100.00
36828;BME280;22766;48.042;11.192;2022-12-18T08:43:33;96212.25;;;-5.94;100.00
36828;BME280;22766;48.042;11.192;2022-12-18T08:46:19;96208.75;;;-5.86;100.00
36828;BME280;22766;48.042;11.192;2022-12-18T08:48:47;96206.00;;;-5.74;100.00
36828;BME280;22766;48.042;11.192;2022-12-18T08:51:16;96211.72;;;-5.65;100.00
36828;BME280;22766;48.042;11.192;2022-12-18T08:53:43;96216.69;;;-5.61;100.00
36828;BME280;22766;48.042;11.192;2022-12-18T08:56:11;96219.34;;;-5.68;100.00
36828;BME280;22766;48.042;11.192;2022-12-18T08:58:38;96212.69;;;-5.73;100.00
36828;BME280;22766;48.042;11.192;2022-12-18T09:01:07;96212.63;;;-5.70;100.00
36828;BME280;22766;48.042;11.192;2022-12-18T09:03:35;96218.63;;;-5.77;100.00
36828;BME280;22766;48.042;11.192;2022-12-18T09:06:02;96212.53;;;-5.63;100.00
36828;BME280;22766;48.042;11.192;2022-12-18T09:08:29;96220.75;;;-5.54;100.00
36828;BME280;22766;48.042;11.192;2022-12-18T09:10:56;96215.97;;;-5.69;100.00
36828;BME280;22766;48.042;11.192;2022-12-18T09:13:23;96216.66;;;-5.59;100.00
36828;BME280;22766;48.042;11.192;2022-12-18T09:15:53;96216.28;;;-5.38;100.00
36828;BME280;22766;48.042;11.192;2022-12-18T09:18:22;96216.81;;;-5.23;100.00
36828;BME280;22766;48.042;11.192;2022-12-18T09:20:49;96213.53;;;-5.28;100.00
36828;BME280;22766;48.042;11.192;2022-12-18T09:23:18;96223.78;;;-5.37;100.00
36828;BME280;22766;48.042;11.192;2022-12-18T09:25:44;96222.81;;;-5.30;100.00
36828;BME280;22766;48.042;11.192;2022-12-18T09:28:16;96225.16;;;-5.21;100.00
36828;BME280;22766;48.042;11.192;2022-12-18T09:30:47;96223.13;;;-5.02;100.00
36828;BME280;22766;48.042;11.192;2022-12-18T09:33:14;96224.50;;;-4.88;100.00
36828;BME280;22766;48.042;11.192;2022-12-18T09:35:42;96219.25;;;-4.77;100.00
36828;BME280;22766;48.042;11.192;2022-12-18T09:38:16;96221.22;;;-4.91;100.00
36828;BME280;22766;48.042;11.192;2022-12-18T09:40:47;96219.41;;;-4.86;100.00
36828;BME280;22766;48.042;11.192;2022-12-18T09:46:03;96221.09;;;-4.85;100.00
36828;BME280;22766;48.042;11.192;2022-12-18T09:48:35;96207.97;;;-4.61;100.00
36828;BME280;22766;48.042;11.192;2022-12-18T09:51:13;96204.88;;;-4.72;100.00
36828;BME280;22766;48.042;11.192;2022-12-18T09:53:44;96210.25;;;-4.89;100.00
36828;BME280;22766;48.042;11.192;2022-12-18T09:56:17;96209.91;;;-4.72;100.00
36828;BME280;22766;48.042;11.192;2022-12-18T09:58:55;96209.69;;;-4.63;100.00
36828;BME280;22766;48.042;11.192;2022-12-18T10:01:24;96201.63;;;-4.40;100.00
36828;BME280;22766;48.042;11.192;2022-12-18T10:04:00;96200.53;;;-4.29;100.00
36828;BME280;22766;48.042;11.192;2022-12-18T10:06:50;96204.22;;;-4.82;100.00
36828;BME280;22766;48.042;11.192;2022-12-18T10:09:36;96197.06;;;-5.01;100.00
36828;BME280;22766;48.042;11.192;2022-12-18T10:15:57;96198.00;;;-5.05;100.00
36828;BME280;22766;48.042;11.192;2022-12-18T10:21:30;96189.47;;;-4.58;100.00
36828;BME280;22766;48.042;11.192;2022-12-18T10:26:31;96174.00;;;-4.43;100.00
36828;BME280;22766;48.042;11.192;2022-12-18T10:28:59;96169.53;;;-4.32;100.00
36828;BME280;22766;48.042;11.192;2022-12-18T10:31:34;96166.59;;;-4.14;100.00
36828;BME280;22766;48.042;11.192;2022-12-18T10:34:01;96163.19;;;-4.48;100.00
36828;BME280;22766;48.042;11.192;2022-12-18T10:36:27;96172.75;;;-4.62;100.00
36828;BME280;22766;48.042;11.192;2022-12-18T10:39:14;96176.31;;;-4.34;100.00
36828;BME280;22766;48.042;11.192;2022-12-18T10:41:41;96165.09;;;-4.23;100.00
36828;BME280;22766;48.042;11.192;2022-12-18T10:46:49;96161.91;;;-4.29;100.00
36828;BME280;22766;48.042;11.192;2022-12-18T10:49:31;96151.47;;;-4.14;100.00
36828;BME280;22766;48.042;11.192;2022-12-18T10:52:15;96162.25;;;-3.75;100.00
36828;BME280;22766;48.042;11.192;2022-12-18T10:54:54;96170.34;;;-3.63;100.00
36828;BME280;22766;48.042;11.192;2022-12-18T10:57:32;96180.06;;;-3.49;100.00
36828;BME280;22766;48.042;11.192;2022-12-18T11:00:18;96179.00;;;-3.41;100.00
36828;BME280;22766;48.042;11.192;2022-12-18T11:02:46;96177.13;;;-3.02;100.00
36828;BME280;22766;48.042;11.192;2022-12-18T11:07:57;96182.22;;;-3.05;100.00
36828;BME280;22766;48.042;11.192;2022-12-18T11:10:28;96170.84;;;-2.89;100.00
36828;BME280;22766;48.042;11.192;2022-12-18T11:13:09;96177.53;;;-2.88;100.00
36828;BME280;22766;48.042;11.192;2022-12-18T11:15:36;96176.69;;;-2.87;100.00
36828;BME280;22766;48.042;11.192;2022-12-18T11:18:03;96176.47;;;-2.81;100.00
36828;BME280;22766;48.042;11.192;2022-12-18T11:20:34;96183.09;;;-2.77;100.00
36828;BME280;22766;48.042;11.192;2022-12-18T11:23:05;96172.47;;;-2.88;100.00
36828;BME280;22766;48.042;11.192;2022-12-18T11:25:37;96171.59;;;-2.58;100.00
36828;BME280;22766;48.042;11.192;2022-12-18T11:33:42;96167.88;;;-3.03;100.00
36828;BME280;22766;48.042;11.192;2022-12-18T11:36:41;96171.31;;;-2.76;100.00
36828;BME280;22766;48.042;11.192;2022-12-18T11:39:23;96168.81;;;-2.78;100.00
36828;BME280;22766;48.042;11.192;2022-12-18T11:41:56;96161.81;;;-2.98;100.00
36828;BME280;22766;48.042;11.192;2022-12-18T11:50:03;96152.09;;;-3.11;100.00
36828;BME280;22766;48.042;11.192;2022-12-18T11:52:38;96157.28;;;-3.46;100.00
36828;BME280;22766;48.042;11.192;2022-12-18T12:09:46;96141.09;;;-3.39;100.00
36828;BME280;22766;48.042;11.192;2022-12-18T12:12:36;96134.63;;;-3.19;100.00
36828;BME280;22766;48.042;11.192;2022-12-18T12:16:15;96133.56;;;-3.41;100.00
36828;BME280;22766;48.042;11.192;2022-12-18T12:24:05;96129.34;;;-3.11;100.00
36828;BME280;22766;48.042;11.192;2022-12-18T12:32:26;96130.25;;;-2.85;100.00
36828;BME280;22766;48.042;11.192;2022-12-18T12:40:35;96137.59;;;-3.05;100.00
36828;BME280;22766;48.042;11.192;2022-12-18T12:46:17;96138.56;;;-2.81;100.00
36828;BME280;22766;48.042;11.192;2022-12-18T12:48:56;96133.63;;;-3.13;100.00
36828;BME280;22766;48.042;11.192;2022-12-18T12:51:28;96131.16;;;-3.44;100.00
36828;BME280;22766;48.042;11.192;2022-12-18T12:53:57;96132.56;;;-3.66;100.00
36828;BME280;22766;48.042;11.192;2022-12-18T13:05:48;96131.06;;;-3.73;100.00
36828;BME280;22766;48.042;11.192;2022-12-18T13:08:30;96135.09;;;-3.66;100.00
36828;BME280;22766;48.042;11.192;2022-12-18T13:11:01;96128.63;;;-3.44;100.00
36828;BME280;22766;48.042;11.192;2022-12-18T13:13:51;96122.06;;;-3.51;100.00
36828;BME280;22766;48.042;11.192;2022-12-18T13:16:22;96124.88;;;-3.61;100.00
36828;BME280;22766;48.042;11.192;2022-12-18T13:18:55;96125.13;;;-3.70;100.00
36828;BME280;22766;48.042;11.192;2022-12-18T13:21:30;96126.53;;;-3.60;100.00
36828;BME280;22766;48.042;11.192;2022-12-18T13:24:34;96123.41;;;-3.70;100.00
36828;BME280;22766;48.042;11.192;2022-12-18T13:36:09;96120.09;;;-3.72;100.00
36828;BME280;22766;48.042;11.192;2022-12-18T13:38:39;96124.44;;;-3.77;100.00
36828;BME280;22766;48.042;11.192;2022-12-18T13:51:33;96126.53;;;-3.93;100.00
36828;BME280;22766;48.042;11.192;2022-12-18T13:56:52;96131.91;;;-4.05;100.00
36828;BME280;22766;48.042;11.192;2022-12-18T13:59:32;96127.84;;;-4.12;100.00
36828;BME280;22766;48.042;11.192;2022-12-18T14:02:04;96124.59;;;-4.15;100.00
36828;BME280;22766;48.042;11.192;2022-12-18T14:04:35;96134.63;;;-4.14;100.00
36828;BME280;22766;48.042;11.192;2022-12-18T14:07:07;96135.41;;;-4.12;100.00
36828;BME280;22766;48.042;11.192;2022-12-18T14:09:55;96136.53;;;-4.22;100.00
36828;BME280;22766;48.042;11.192;2022-12-18T14:12:50;96138.03;;;-4.15;100.00
36828;BME280;22766;48.042;11.192;2022-12-18T14:15:40;96134.63;;;-4.14;100.00
36828;BME280;22766;48.042;11.192;2022-12-18T14:18:23;96146.78;;;-4.29;100.00
36828;BME280;22766;48.042;11.192;2022-12-18T14:20:53;96143.81;;;-4.45;100.00
36828;BME280;22766;48.042;11.192;2022-12-18T14:25:55;96139.50;;;-4.41;100.00
36828;BME280;22766;48.042;11.192;2022-12-18T14:28:28;96139.50;;;-4.41;100.00
36828;BME280;22766;48.042;11.192;2022-12-18T14:30:55;96143.66;;;-4.39;100.00
36828;BME280;22766;48.042;11.192;2022-12-18T14:33:27;96144.91;;;-4.56;100.00
36828;BME280;22766;48.042;11.192;2022-12-18T14:36:03;96138.06;;;-4.51;100.00
36828;BME280;22766;48.042;11.192;2022-12-18T14:38:33;96133.81;;;-4.49;100.00
36828;BME280;22766;48.042;11.192;2022-12-18T14:41:13;96134.91;;;-4.61;100.00
36828;BME280;22766;48.042;11.192;2022-12-18T14:43:41;96126.59;;;-4.64;100.00
36828;BME280;22766;48.042;11.192;2022-12-18T14:46:44;96121.34;;;-4.55;100.00
36828;BME280;22766;48.042;11.192;2022-12-18T14:49:20;96129.81;;;-4.58;100.00
36828;BME280;22766;48.042;11.192;2022-12-18T14:51:50;96139.38;;;-4.72;100.00
36828;BME280;22766;48.042;11.192;2022-12-18T14:54:19;96135.94;;;-4.68;100.00
36828;BME280;22766;48.042;11.192;2022-12-18T14:56:48;96136.44;;;-4.54;100.00
36828;BME280;22766;48.042;11.192;2022-12-18T14:59:23;96141.38;;;-4.49;100.00
36828;BME280;22766;48.042;11.192;2022-12-18T15:01:58;96142.25;;;-4.50;100.00
36828;BME280;22766;48.042;11.192;2022-12-18T15:07:08;96144.34;;;-4.69;100.00
36828;BME280;22766;48.042;11.192;2022-12-18T15:09:37;96147.00;;;-4.75;100.00
36828;BME280;22766;48.042;11.192;2022-12-18T15:12:05;96146.25;;;-4.80;100.00
36828;BME280;22766;48.042;11.192;2022-12-18T15:14:40;96147.94;;;-4.79;100.00
36828;BME280;22766;48.042;11.192;2022-12-18T15:17:21;96148.09;;;-4.88;100.00
36828;BME280;22766;48.042;11.192;2022-12-18T15:19:53;96156.34;;;-4.80;100.00
36828;BME280;22766;48.042;11.192;2022-12-18T15:24:53;96158.25;;;-4.91;100.00